De Beque, Colorado
Current Conditions -  °F | °C
As of 10:53 AM on Saturday 25 Oct 2014 (Local Time) from KGJT Reporting Station
Clear Clear  
Wind Chill: 62°   Ceiling: Unl
Heat Index: 62°   Visibility: 10mi
Dew Point: 30°   Wind: 12mph
Humidity: 30%   Direction: 130°SE
Pressure: 30.25"   Gusts: NA
Location:  39.33°N, 108.22°W
Report Text: KGJT 251653Z 13010KT 10SM CLR 17/M01 A3025 RMK AO2 SLP209 T01671011
Loading
Personal Weather Stations






























Interactive Weather Map
Tropical Storm Tracking
New forecast layout! Learn more

10-Day Weather Forecast

Advertisements
Track Severe Weather on mobile